CYVM/YVM METAR and TAF weather

Enter ICAO airport designator
Station Type Date Time Source
CYVM METAR 2021/01/17 19:15 UTC NOAA

CYVM 171915Z AUTO 10004KT 7SM -SN OVC033 M15/M16 A2979 RMK SLP088


Station Type Date Time Source
CYVM Decoded METAR 2021/01/17 19:15 UTC NOAA

Broughton Island Airport, Canada (CYVM) 67-33N 064-02W
Jan 17, 2021 - 02:15 PM EST / 2021.01.17 1915 UTC
Wind: from the E (100 degrees) at 5 MPH (4 KT):0
Visibility: 7 mile(s):0
Sky conditions: overcast
Weather: light snow
Temperature: 5 F (-15 C)
Windchill: -4 F (-20 C):1
Dew Point: 3 F (-16 C)
Relative Humidity: 92%
Pressure (altimeter): 29.79 in. Hg (1008 hPa)
ob: CYVM 171915Z AUTO 10004KT 7SM -SN OVC033 M15/M16 A2979 RMK SLP088
cycle: 19

Station Type Date Time Source
CYVM TAF 2021/01/17 19:42 UTC NOAA

TAF CYVM 171838Z 1719/1807 VRB03KT P6SM SCT020 BKN080
TEMPO 1719/1723 4SM -SN OVC020
FM172300 19007KT P6SM FEW020 SCT080
RMK NXT FCST BY 180100Z

Example: see airport list